Time;durP1;ratioP1;P1;durP2;ratioP2;P2;SDS_P1;SDS_P2;PMS_P1;PMS_P2;Temp;Humidity;BMP_temperature;BMP_pressure;BME280_temperature;BME280_humidity;BME280_pressure;Samples;Min_cycle;Max_cycle;Signal;HPM_P1;HPM_P2
2023/06/23 00:01:00;;;;;;;8.68;3.20;;;;;;;;;;5091012;28;20036;-68
2023/06/23 00:03:26;;;;;;;6.57;3.47;;;;;;;;;;5090866;28;20023;-67
2023/06/23 00:05:51;;;;;;;9.30;3.03;;;;;;;;;;5090938;28;20028;-67
2023/06/23 00:08:17;;;;;;;6.32;3.42;;;;;;;;;;5091247;28;20025;-67
2023/06/23 00:10:43;;;;;;;7.15;3.30;;;;;;;;;;5092006;28;20483;-67
2023/06/23 00:13:10;;;;;;;11.20;3.30;;;;;;;;;;5092332;28;20529;-69
2023/06/23 00:15:35;;;;;;;11.52;3.65;;;;;;;;;;5092307;28;20036;-67
2023/06/23 00:18:01;;;;;;;8.18;3.55;;;;;;;;;;5092259;28;20016;-68
2023/06/23 00:20:26;;;;;;;5.45;2.78;;;;;;;;;;5092125;28;20036;-67
2023/06/23 00:22:52;;;;;;;12.55;3.70;;;;;;;;;;5092086;28;20103;-68
2023/06/23 00:25:18;;;;;;;9.07;3.50;;;;;;;;;;5091913;28;20032;-67
2023/06/23 00:27:45;;;;;;;9.63;3.47;;;;;;;;;;5093938;28;20024;-68
2023/06/23 00:30:11;;;;;;;9.13;3.40;;;;;;;;;;5095893;28;20024;-67
2023/06/23 00:32:37;;;;;;;12.50;3.50;;;;;;;;;;5095816;28;20035;-67
2023/06/23 00:35:03;;;;;;;8.02;3.35;;;;;;;;;;5095701;28;20092;-67
2023/06/23 00:37:32;;;;;;;9.05;3.63;;;;;;;;;;5095632;28;20024;-69
2023/06/23 00:39:58;;;;;;;6.00;3.42;;;;;;;;;;5107770;28;20032;-68
2023/06/23 00:42:24;;;;;;;7.70;3.03;;;;;;;;;;5116128;28;20028;-68
2023/06/23 00:44:50;;;;;;;8.18;3.58;;;;;;;;;;5116075;28;20362;-67
2023/06/23 00:47:16;;;;;;;10.82;3.80;;;;;;;;;;5115728;28;20051;-68
2023/06/23 00:49:42;;;;;;;4.57;3.47;;;;;;;;;;5115792;28;20552;-69
2023/06/23 00:52:07;;;;;;;7.65;3.70;;;;;;;;;;5115920;28;20028;-67
2023/06/23 00:54:35;;;;;;;12.55;4.43;;;;;;;;;;5115820;28;20024;-67
2023/06/23 00:57:04;;;;;;;11.52;4.25;;;;;;;;;;5116137;28;20046;-67
2023/06/23 00:59:30;;;;;;;9.25;4.13;;;;;;;;;;5098041;28;20381;-67
2023/06/23 01:02:00;;;;;;;7.85;4.13;;;;;;;;;;5095240;28;20032;-67
2023/06/23 01:04:27;;;;;;;8.52;4.72;;;;;;;;;;5095235;28;20040;-68
2023/06/23 01:07:16;;;;;;;9.35;4.10;;;;;;;;;;5095248;28;20067;-67
2023/06/23 01:09:52;;;;;;;8.88;4.68;;;;;;;;;;5094198;28;20109;-68
2023/06/23 01:12:38;;;;;;;8.75;4.70;;;;;;;;;;5095286;28;20058;-67
2023/06/23 01:15:09;;;;;;;11.43;4.65;;;;;;;;;;5095203;28;20056;-67
2023/06/23 01:17:42;;;;;;;11.38;4.43;;;;;;;;;;5095077;28;20024;-67
2023/06/23 01:20:24;;;;;;;6.20;3.78;;;;;;;;;;5095058;28;20111;-67
2023/06/23 01:23:24;;;;;;;9.52;3.50;;;;;;;;;;5095073;28;20039;-67
2023/06/23 01:26:29;;;;;;;9.50;3.40;;;;;;;;;;5094972;28;20032;-67
2023/06/23 01:29:09;;;;;;;8.63;3.22;;;;;;;;;;5094886;28;20462;-68
2023/06/23 01:31:54;;;;;;;6.22;3.20;;;;;;;;;;5094994;28;20468;-68
2023/06/23 01:34:25;;;;;;;7.25;2.95;;;;;;;;;;5094716;28;20043;-68
2023/06/23 01:37:18;;;;;;;7.40;2.95;;;;;;;;;;5094517;28;20027;-67
2023/06/23 01:39:50;;;;;;;4.80;2.90;;;;;;;;;;5093738;28;20035;-67
2023/06/23 01:42:18;;;;;;;7.18;3.40;;;;;;;;;;5115078;28;20035;-67
2023/06/23 01:44:47;;;;;;;6.70;3.40;;;;;;;;;;5114963;28;20028;-67
2023/06/23 01:47:18;;;;;;;9.77;3.50;;;;;;;;;;5114750;28;20193;-68
2023/06/23 01:49:45;;;;;;;6.88;2.95;;;;;;;;;;5114764;28;20020;-67
2023/06/23 01:52:13;;;;;;;6.63;3.25;;;;;;;;;;5114587;28;20076;-67
2023/06/23 01:54:40;;;;;;;6.70;3.00;;;;;;;;;;5096422;28;20461;-67
2023/06/23 01:57:07;;;;;;;7.28;3.03;;;;;;;;;;5114705;28;20026;-69
2023/06/23 01:59:35;;;;;;;6.00;3.00;;;;;;;;;;5096543;28;20023;-67
2023/06/23 02:02:02;;;;;;;4.35;3.13;;;;;;;;;;5094211;28;20079;-67
2023/06/23 02:04:30;;;;;;;5.38;3.20;;;;;;;;;;5093955;28;20089;-69
2023/06/23 02:06:57;;;;;;;7.72;3.33;;;;;;;;;;5094050;28;20553;-67
2023/06/23 02:09:26;;;;;;;4.20;3.20;;;;;;;;;;5093935;28;20020;-67
2023/06/23 02:11:54;;;;;;;4.95;3.00;;;;;;;;;;5075820;28;20381;-67
2023/06/23 02:14:21;;;;;;;7.85;3.53;;;;;;;;;;5093967;28;20470;-67
2023/06/23 02:16:47;;;;;;;6.53;3.63;;;;;;;;;;5093983;28;20024;-67
2023/06/23 02:19:15;;;;;;;6.15;3.70;;;;;;;;;;5093891;28;20028;-67
2023/06/23 02:21:43;;;;;;;5.38;3.70;;;;;;;;;;5093741;28;20085;-67
2023/06/23 02:24:09;;;;;;;5.47;3.72;;;;;;;;;;5093893;28;20028;-67
2023/06/23 02:26:37;;;;;;;5.63;3.80;;;;;;;;;;5093639;28;20024;-67
2023/06/23 02:29:05;;;;;;;6.22;3.72;;;;;;;;;;5093656;28;20028;-67
2023/06/23 02:31:30;;;;;;;5.20;3.50;;;;;;;;;;5093764;28;20050;-68
2023/06/23 02:33:56;;;;;;;5.90;3.60;;;;;;;;;;5093643;28;20024;-68
2023/06/23 02:36:25;;;;;;;4.38;3.30;;;;;;;;;;5093273;28;20032;-67
2023/06/23 02:38:54;;;;;;;8.55;3.80;;;;;;;;;;5096194;28;20039;-67
2023/06/23 02:41:22;;;;;;;5.22;3.25;;;;;;;;;;5113790;28;20023;-67
2023/06/23 02:43:51;;;;;;;7.25;3.42;;;;;;;;;;5095568;28;20027;-67
2023/06/23 02:46:23;;;;;;;6.65;3.70;;;;;;;;;;5113436;28;20055;-67
2023/06/23 02:48:51;;;;;;;6.70;4.38;;;;;;;;;;5113490;28;20028;-67
2023/06/23 02:51:20;;;;;;;6.65;3.58;;;;;;;;;;5113003;28;20023;-67
2023/06/23 02:54:09;;;;;;;4.78;3.55;;;;;;;;;;5113456;28;20539;-67
2023/06/23 02:56:41;;;;;;;5.53;3.93;;;;;;;;;;5113614;28;20062;-67
2023/06/23 02:59:08;;;;;;;20.50;14.65;;;;;;;;;;5099038;28;20040;-68
2023/06/23 03:01:39;;;;;;;10.90;6.50;;;;;;;;;;5093182;28;20032;-67
2023/06/23 03:04:05;;;;;;;6.30;3.97;;;;;;;;;;5092571;28;20039;-68
2023/06/23 03:06:36;;;;;;;6.68;3.55;;;;;;;;;;5092871;28;20024;-69
2023/06/23 03:09:03;;;;;;;6.22;3.65;;;;;;;;;;5092964;28;20024;-67
2023/06/23 03:11:30;;;;;;;5.95;3.20;;;;;;;;;;5092915;28;20462;-68
2023/06/23 03:13:56;;;;;;;6.90;3.40;;;;;;;;;;5092816;28;20036;-68
2023/06/23 03:16:33;;;;;;;5.80;3.35;;;;;;;;;;5092838;28;20103;-68
2023/06/23 03:19:28;;;;;;;5.45;2.75;;;;;;;;;;5092584;28;20020;-67
2023/06/23 03:22:02;;;;;;;3.53;2.80;;;;;;;;;;5092819;28;20036;-67
2023/06/23 03:24:31;;;;;;;7.30;3.65;;;;;;;;;;5092840;28;20020;-67
2023/06/23 03:26:58;;;;;;;6.93;2.95;;;;;;;;;;5092905;28;20381;-67
2023/06/23 03:29:28;;;;;;;7.25;3.35;;;;;;;;;;5092822;28;20114;-67
2023/06/23 03:31:58;;;;;;;10.57;3.30;;;;;;;;;;5092743;28;20489;-67
2023/06/23 03:34:32;;;;;;;4.15;3.15;;;;;;;;;;5092473;28;20028;-67
2023/06/23 03:36:58;;;;;;;5.30;3.13;;;;;;;;;;5092608;28;20023;-67
2023/06/23 03:39:30;;;;;;;8.20;3.33;;;;;;;;;;5100022;28;20469;-68
2023/06/23 03:41:56;;;;;;;6.22;3.38;;;;;;;;;;5112961;28;20023;-68
2023/06/23 03:44:35;;;;;;;5.30;3.65;;;;;;;;;;5113049;28;20087;-67
2023/06/23 03:47:09;;;;;;;5.53;2.88;;;;;;;;;;5112757;28;20043;-67
2023/06/23 03:49:40;;;;;;;7.78;2.92;;;;;;;;;;5112686;28;20396;-68
2023/06/23 03:52:09;;;;;;;4.30;2.83;;;;;;;;;;5112947;28;20031;-67
2023/06/23 03:54:38;;;;;;;7.38;3.28;;;;;;;;;;5112966;28;20031;-68
2023/06/23 03:57:06;;;;;;;4.95;3.10;;;;;;;;;;5113097;28;20024;-67
2023/06/23 03:59:33;;;;;;;6.65;3.28;;;;;;;;;;5094999;28;20404;-67
2023/06/23 04:02:00;;;;;;;6.88;3.13;;;;;;;;;;5093093;28;20023;-69
2023/06/23 04:04:27;;;;;;;5.43;3.75;;;;;;;;;;5078492;28;20028;-67
2023/06/23 04:06:54;;;;;;;6.78;3.47;;;;;;;;;;5096684;28;20080;-67
2023/06/23 04:09:21;;;;;;;4.38;3.38;;;;;;;;;;5096309;28;20031;-67
2023/06/23 04:11:47;;;;;;;5.38;3.38;;;;;;;;;;5096222;28;20028;-67
2023/06/23 04:14:14;;;;;;;5.85;3.35;;;;;;;;;;5096456;28;20377;-67
2023/06/23 04:16:42;;;;;;;5.78;3.67;;;;;;;;;;5096175;28;20024;-68
2023/06/23 04:19:10;;;;;;;7.20;3.72;;;;;;;;;;5096218;28;20469;-67
2023/06/23 04:21:38;;;;;;;7.97;4.10;;;;;;;;;;5096294;28;20042;-67
2023/06/23 04:24:05;;;;;;;6.10;3.65;;;;;;;;;;5096100;28;20020;-67
2023/06/23 04:26:36;;;;;;;5.95;3.75;;;;;;;;;;5096096;28;20444;-67
2023/06/23 04:29:06;;;;;;;6.88;3.60;;;;;;;;;;5096123;28;20528;-67
2023/06/23 04:31:32;;;;;;;8.55;3.88;;;;;;;;;;5095777;28;20032;-67
2023/06/23 04:33:58;;;;;;;7.53;3.63;;;;;;;;;;5095973;28;20039;-67
2023/06/23 04:36:29;;;;;;;7.35;3.88;;;;;;;;;;5096120;28;20020;-66
2023/06/23 04:39:02;;;;;;;7.53;4.18;;;;;;;;;;5099277;28;20055;-67
2023/06/23 04:41:29;;;;;;;14.30;4.53;;;;;;;;;;5116782;28;20411;-67
2023/06/23 04:43:58;;;;;;;8.00;4.00;;;;;;;;;;5116424;28;20027;-67
2023/06/23 04:46:26;;;;;;;6.90;4.40;;;;;;;;;;5115505;28;20061;-67
2023/06/23 04:48:56;;;;;;;6.13;4.38;;;;;;;;;;5116273;28;20107;-67
2023/06/23 04:51:26;;;;;;;7.90;4.75;;;;;;;;;;5116274;28;20476;-67
2023/06/23 04:53:56;;;;;;;6.72;4.28;;;;;;;;;;5116230;28;20039;-67
2023/06/23 04:56:25;;;;;;;7.75;4.15;;;;;;;;;;5116079;28;20031;-67
2023/06/23 04:58:55;;;;;;;8.73;4.00;;;;;;;;;;5103767;28;20035;-67
2023/06/23 05:01:21;;;;;;;6.78;4.07;;;;;;;;;;5095281;28;20096;-67
2023/06/23 05:03:49;;;;;;;5.55;4.05;;;;;;;;;;5095495;28;20024;-68
2023/06/23 05:06:18;;;;;;;6.18;3.75;;;;;;;;;;5095632;28;20108;-67
2023/06/23 05:08:47;;;;;;;7.38;3.33;;;;;;;;;;5095380;28;20120;-67
2023/06/23 05:11:14;;;;;;;6.90;3.23;;;;;;;;;;5095257;28;20035;-68
2023/06/23 05:13:41;;;;;;;11.23;4.28;;;;;;;;;;5094978;28;20024;-70
2023/06/23 05:16:10;;;;;;;5.57;3.28;;;;;;;;;;5095306;28;20023;-68
2023/06/23 05:18:37;;;;;;;6.40;3.50;;;;;;;;;;5095233;28;20040;-67
2023/06/23 05:21:05;;;;;;;5.82;3.30;;;;;;;;;;5095202;28;20020;-67
2023/06/23 05:23:35;;;;;;;9.52;3.72;;;;;;;;;;5095204;28;20084;-68
2023/06/23 05:26:03;;;;;;;14.15;4.40;;;;;;;;;;5095007;28;20044;-68
2023/06/23 05:28:32;;;;;;;8.65;3.80;;;;;;;;;;5094995;28;20024;-67
2023/06/23 05:31:00;;;;;;;10.88;3.67;;;;;;;;;;5094733;28;20024;-67
2023/06/23 05:33:26;;;;;;;5.55;3.55;;;;;;;;;;5094867;28;20062;-68
2023/06/23 05:35:52;;;;;;;5.03;2.95;;;;;;;;;;5094716;28;20027;-68
2023/06/23 05:38:19;;;;;;;6.50;3.47;;;;;;;;;;5094532;28;20450;-68
2023/06/23 05:40:45;;;;;;;6.65;3.70;;;;;;;;;;5113578;28;20110;-67
2023/06/23 05:43:10;;;;;;;7.47;3.65;;;;;;;;;;5115127;28;20063;-67
2023/06/23 05:45:36;;;;;;;8.25;4.10;;;;;;;;;;5114619;28;20028;-68
2023/06/23 05:48:17;;;;;;;7.57;3.55;;;;;;;;;;5115163;28;20088;-67
2023/06/23 05:50:46;;;;;;;7.32;3.72;;;;;;;;;;5115013;28;20055;-67
2023/06/23 05:53:20;;;;;;;6.57;3.47;;;;;;;;;;5115002;28;20070;-68
2023/06/23 05:56:02;;;;;;;8.65;4.30;;;;;;;;;;5114943;28;20039;-69
2023/06/23 05:58:32;;;;;;;7.22;3.78;;;;;;;;;;5105653;28;20028;-68
2023/06/23 06:01:02;;;;;;;6.30;3.15;;;;;;;;;;5094149;28;20039;-67
2023/06/23 06:03:37;;;;;;;7.80;4.22;;;;;;;;;;5094198;28;20500;-69
2023/06/23 06:06:05;;;;;;;7.25;3.60;;;;;;;;;;5093880;28;20035;-67
2023/06/23 06:08:33;;;;;;;5.70;3.90;;;;;;;;;;5094063;28;20031;-68
2023/06/23 06:11:01;;;;;;;5.45;3.45;;;;;;;;;;5073761;28;20131;-67
2023/06/23 06:13:29;;;;;;;5.35;3.40;;;;;;;;;;5073677;28;20024;-69
2023/06/23 06:15:55;;;;;;;5.57;3.45;;;;;;;;;;5073802;28;20047;-69
2023/06/23 06:18:23;;;;;;;6.00;4.07;;;;;;;;;;5073683;28;20098;-69
2023/06/23 06:20:50;;;;;;;8.27;4.05;;;;;;;;;;5073758;28;20095;-70
2023/06/23 06:23:18;;;;;;;7.60;3.92;;;;;;;;;;5073591;28;20093;-69
2023/06/23 06:25:46;;;;;;;6.90;4.20;;;;;;;;;;5075187;28;20032;-70
2023/06/23 06:28:13;;;;;;;8.13;3.83;;;;;;;;;;5089570;28;20016;-69
2023/06/23 06:30:42;;;;;;;10.43;4.07;;;;;;;;;;5094547;28;20024;-68
2023/06/23 06:33:09;;;;;;;9.55;4.78;;;;;;;;;;5095339;28;20016;-67
2023/06/23 06:35:37;;;;;;;7.20;4.68;;;;;;;;;;5094920;28;20019;-68
2023/06/23 06:38:05;;;;;;;9.00;5.20;;;;;;;;;;5105696;28;20085;-67
2023/06/23 06:40:33;;;;;;;7.38;4.80;;;;;;;;;;5113537;28;20106;-67
2023/06/23 06:42:59;;;;;;;7.72;4.95;;;;;;;;;;5103445;28;20036;-68
2023/06/23 06:45:24;;;;;;;10.25;5.32;;;;;;;;;;5109875;28;20016;-68
2023/06/23 06:47:53;;;;;;;13.05;5.50;;;;;;;;;;5099216;28;20461;-67
2023/06/23 06:50:19;;;;;;;8.77;5.13;;;;;;;;;;5092877;28;20389;-67
2023/06/23 06:52:46;;;;;;;7.78;5.15;;;;;;;;;;5100701;28;20369;-68
2023/06/23 06:55:19;;;;;;;10.88;4.97;;;;;;;;;;5083626;28;20032;-68
2023/06/23 06:57:46;;;;;;;7.07;4.90;;;;;;;;;;5090640;28;20031;-67
2023/06/23 07:00:13;;;;;;;7.72;4.82;;;;;;;;;;5093028;28;20434;-67
2023/06/23 07:02:39;;;;;;;6.70;4.95;;;;;;;;;;5092947;28;20031;-67
2023/06/23 07:05:06;;;;;;;10.38;4.95;;;;;;;;;;5092903;28;20036;-67
2023/06/23 07:07:32;;;;;;;7.75;4.90;;;;;;;;;;5074750;28;20468;-67
2023/06/23 07:09:58;;;;;;;7.13;4.50;;;;;;;;;;5092580;28;20067;-66
2023/06/23 07:12:23;;;;;;;7.50;4.00;;;;;;;;;;5074220;28;20028;-67
2023/06/23 07:14:49;;;;;;;6.97;3.97;;;;;;;;;;5092767;28;20059;-67
2023/06/23 07:17:15;;;;;;;9.23;4.57;;;;;;;;;;5092701;28;20415;-67
2023/06/23 07:19:41;;;;;;;9.15;4.35;;;;;;;;;;5092482;28;20078;-67
2023/06/23 07:22:07;;;;;;;7.22;4.15;;;;;;;;;;5108507;28;20368;-67
2023/06/23 07:24:32;;;;;;;6.65;4.00;;;;;;;;;;5112908;28;20431;-69
2023/06/23 07:26:57;;;;;;;5.55;3.92;;;;;;;;;;5112636;28;20024;-67
2023/06/23 07:29:23;;;;;;;9.77;4.15;;;;;;;;;;5099131;28;20063;-69
2023/06/23 07:31:48;;;;;;;9.10;3.90;;;;;;;;;;5112719;28;20050;-68
2023/06/23 07:34:14;;;;;;;6.70;4.35;;;;;;;;;;5092965;28;20028;-68
2023/06/23 07:36:39;;;;;;;8.23;4.18;;;;;;;;;;5092372;28;20107;-69
2023/06/23 07:39:05;;;;;;;9.10;3.58;;;;;;;;;;5096944;28;20407;-67
2023/06/23 07:41:30;;;;;;;8.40;3.92;;;;;;;;;;5112409;28;20066;-67
2023/06/23 07:43:56;;;;;;;9.10;4.05;;;;;;;;;;5112799;28;20061;-68
2023/06/23 07:46:21;;;;;;;8.13;4.00;;;;;;;;;;5112420;28;20075;-67
2023/06/23 07:48:47;;;;;;;6.82;4.07;;;;;;;;;;5109290;28;20051;-68
2023/06/23 07:51:12;;;;;;;12.57;4.40;;;;;;;;;;5092267;28;20063;-67
2023/06/23 07:53:38;;;;;;;6.57;3.70;;;;;;;;;;5092383;28;20154;-67
2023/06/23 07:56:03;;;;;;;6.38;3.70;;;;;;;;;;5091931;28;20025;-67
2023/06/23 07:58:29;;;;;;;5.70;3.83;;;;;;;;;;5092201;28;20035;-67
2023/06/23 08:00:54;;;;;;;4.40;3.38;;;;;;;;;;5092490;28;20167;-67
2023/06/23 08:03:20;;;;;;;6.50;3.70;;;;;;;;;;5092051;28;20107;-68
2023/06/23 08:05:46;;;;;;;5.53;4.00;;;;;;;;;;5074177;28;20043;-67
2023/06/23 08:08:11;;;;;;;6.10;3.70;;;;;;;;;;5092059;28;20036;-67
2023/06/23 08:10:36;;;;;;;5.72;3.80;;;;;;;;;;5092034;28;20064;-67
2023/06/23 08:13:02;;;;;;;5.75;3.65;;;;;;;;;;5091680;28;20466;-67
2023/06/23 08:15:27;;;;;;;6.97;3.47;;;;;;;;;;5092176;28;20017;-69
2023/06/23 08:17:54;;;;;;;10.00;3.70;;;;;;;;;;5092160;28;20035;-67
2023/06/23 08:20:20;;;;;;;7.10;3.47;;;;;;;;;;5092059;28;20551;-68
2023/06/23 08:22:46;;;;;;;5.50;3.63;;;;;;;;;;5092140;28;20115;-69
2023/06/23 08:25:11;;;;;;;12.52;4.13;;;;;;;;;;5091899;28;20020;-67
2023/06/23 08:27:37;;;;;;;7.43;3.80;;;;;;;;;;5091951;28;20103;-69
2023/06/23 08:30:03;;;;;;;6.80;4.07;;;;;;;;;;5091277;28;20028;-67
2023/06/23 08:32:28;;;;;;;7.45;3.75;;;;;;;;;;5091825;28;20024;-67
2023/06/23 08:34:54;;;;;;;7.78;4.00;;;;;;;;;;5092134;28;20028;-67
2023/06/23 08:37:19;;;;;;;7.82;4.30;;;;;;;;;;5091617;28;20420;-67
2023/06/23 08:39:44;;;;;;;10.02;3.72;;;;;;;;;;5102067;28;20111;-67
2023/06/23 08:42:12;;;;;;;8.73;3.55;;;;;;;;;;5112145;28;20106;-67
2023/06/23 08:44:41;;;;;;;6.07;3.88;;;;;;;;;;5112080;28;20488;-67
2023/06/23 08:47:13;;;;;;;7.95;3.85;;;;;;;;;;5111784;28;20460;-67
2023/06/23 08:49:41;;;;;;;5.30;3.70;;;;;;;;;;5087129;28;20221;-68
2023/06/23 08:52:08;;;;;;;5.95;3.80;;;;;;;;;;5095078;28;20942;-69
2023/06/23 08:54:35;;;;;;;6.47;3.60;;;;;;;;;;5095320;28;20024;-68
2023/06/23 08:57:01;;;;;;;5.72;3.83;;;;;;;;;;5095271;28;20032;-69
2023/06/23 08:59:27;;;;;;;6.25;3.60;;;;;;;;;;5095021;28;20524;-70
2023/06/23 09:01:52;;;;;;;6.65;3.60;;;;;;;;;;5095052;28;20039;-70
2023/06/23 09:04:19;;;;;;;8.95;3.92;;;;;;;;;;5094947;28;20067;-69
2023/06/23 09:06:44;;;;;;;7.25;4.03;;;;;;;;;;5095023;28;20105;-69
2023/06/23 09:09:10;;;;;;;8.23;4.20;;;;;;;;;;5095007;28;20521;-70
2023/06/23 09:11:36;;;;;;;7.00;4.07;;;;;;;;;;5094785;28;20456;-69
2023/06/23 09:14:02;;;;;;;5.18;3.50;;;;;;;;;;5095673;28;20035;-69
2023/06/23 09:16:28;;;;;;;7.45;3.63;;;;;;;;;;5108770;28;20038;-70
2023/06/23 09:18:54;;;;;;;6.25;3.20;;;;;;;;;;5094577;28;20361;-70
2023/06/23 09:21:20;;;;;;;8.32;3.55;;;;;;;;;;5094099;28;20016;-69
2023/06/23 09:24:04;;;;;;;8.68;3.78;;;;;;;;;;5106242;28;20492;-70
2023/06/23 09:26:45;;;;;;;9.52;3.53;;;;;;;;;;5115083;28;20114;-68
2023/06/23 09:29:21;;;;;;;7.05;3.47;;;;;;;;;;5097045;28;20049;-69
2023/06/23 09:31:48;;;;;;;6.03;3.30;;;;;;;;;;5115031;28;20485;-71
2023/06/23 09:34:24;;;;;;;8.60;3.60;;;;;;;;;;5115021;28;20023;-71
2023/06/23 09:36:52;;;;;;;5.45;3.33;;;;;;;;;;5114835;28;20048;-69
2023/06/23 09:39:18;;;;;;;8.35;3.75;;;;;;;;;;5101142;28;20035;-70
2023/06/23 09:41:54;;;;;;;13.25;3.47;;;;;;;;;;5114930;28;20028;-69
2023/06/23 09:44:20;;;;;;;9.77;3.70;;;;;;;;;;5114662;28;20500;-69
2023/06/23 09:46:45;;;;;;;7.97;3.45;;;;;;;;;;5114696;28;20044;-68
2023/06/23 09:49:11;;;;;;;8.15;3.53;;;;;;;;;;5107977;28;20239;-69
2023/06/23 09:51:37;;;;;;;9.85;3.60;;;;;;;;;;5093949;28;20043;-70
2023/06/23 09:54:03;;;;;;;5.38;3.70;;;;;;;;;;5094232;28;20052;-69
2023/06/23 09:56:28;;;;;;;11.18;3.53;;;;;;;;;;5094321;28;20104;-69
2023/06/23 09:58:54;;;;;;;6.20;3.60;;;;;;;;;;5093801;28;20052;-69
2023/06/23 10:01:20;;;;;;;7.18;3.42;;;;;;;;;;5093362;28;20138;-70
2023/06/23 10:03:53;;;;;;;9.90;3.53;;;;;;;;;;5093941;28;20086;-70
2023/06/23 10:06:22;;;;;;;4.70;3.17;;;;;;;;;;5093908;28;20054;-69
2023/06/23 10:08:48;;;;;;;10.00;3.60;;;;;;;;;;5093776;28;20028;-70
2023/06/23 10:11:18;;;;;;;5.75;3.70;;;;;;;;;;5093802;28;20028;-69
2023/06/23 10:13:45;;;;;;;7.07;3.42;;;;;;;;;;5093946;28;20431;-68
2023/06/23 10:16:11;;;;;;;9.32;3.40;;;;;;;;;;5093775;28;20031;-69
2023/06/23 10:18:37;;;;;;;13.20;4.10;;;;;;;;;;5097467;28;20023;-68
2023/06/23 10:21:03;;;;;;;6.60;3.10;;;;;;;;;;5114019;28;20020;-69
2023/06/23 10:23:29;;;;;;;6.72;3.30;;;;;;;;;;5114053;28;20066;-67
2023/06/23 10:25:56;;;;;;;7.00;3.58;;;;;;;;;;5113856;28;20437;-69
2023/06/23 10:28:23;;;;;;;8.68;3.38;;;;;;;;;;5113772;28;20409;-70
2023/06/23 10:30:49;;;;;;;5.55;3.70;;;;;;;;;;5105667;28;20500;-69
2023/06/23 10:33:19;;;;;;;6.78;3.42;;;;;;;;;;5093453;28;20056;-68
2023/06/23 10:35:47;;;;;;;;;;;;;;;;;;5093665;28;20031;-68
2023/06/23 10:38:17;;;;;;;6.50;3.00;;;;;;;;;;5093241;28;19969;-70
2023/06/23 10:40:48;;;;;;;4.57;3.05;;;;;;;;;;5111770;28;20353;-69
2023/06/23 10:43:15;;;;;;;3.80;2.78;;;;;;;;;;5113854;28;20080;-69
2023/06/23 10:45:42;;;;;;;5.93;2.90;;;;;;;;;;5113338;28;20035;-70
2023/06/23 10:48:08;;;;;;;5.68;2.72;;;;;;;;;;5107425;28;20031;-68
2023/06/23 10:50:34;;;;;;;5.05;2.85;;;;;;;;;;5092813;28;20027;-69
2023/06/23 10:53:32;;;;;;;5.30;2.95;;;;;;;;;;5093108;28;20086;-70
2023/06/23 10:55:58;;;;;;;5.32;3.30;;;;;;;;;;5078183;28;20040;-69
2023/06/23 10:58:24;;;;;;;9.20;3.17;;;;;;;;;;5092865;28;20115;-68
2023/06/23 11:00:53;;;;;;;6.38;3.30;;;;;;;;;;5092968;28;20046;-70
2023/06/23 11:03:28;;;;;;;5.72;3.30;;;;;;;;;;5092317;28;20074;-67
2023/06/23 11:05:55;;;;;;;9.35;3.53;;;;;;;;;;5092837;28;20062;-68
2023/06/23 11:08:37;;;;;;;7.20;4.05;;;;;;;;;;5092632;28;20036;-69
2023/06/23 11:11:06;;;;;;;9.45;4.15;;;;;;;;;;5092431;28;20024;-70
2023/06/23 11:13:37;;;;;;;10.95;4.50;;;;;;;;;;5092997;28;20070;-70
2023/06/23 11:16:03;;;;;;;10.23;4.47;;;;;;;;;;5092907;28;20028;-71
2023/06/23 11:18:29;;;;;;;16.05;6.63;;;;;;;;;;5092531;28;20028;-70
2023/06/23 11:21:02;;;;;;;8.73;4.88;;;;;;;;;;5092785;28;20103;-70
2023/06/23 11:23:28;;;;;;;10.40;5.38;;;;;;;;;;5092309;28;20024;-70
2023/06/23 11:25:53;;;;;;;11.07;5.13;;;;;;;;;;5092546;28;20024;-72
2023/06/23 11:28:38;;;;;;;12.23;5.70;;;;;;;;;;5092348;28;20024;-71
2023/06/23 11:31:27;;;;;;;12.35;5.60;;;;;;;;;;5092467;28;20031;-68
2023/06/23 11:34:02;;;;;;;11.63;6.10;;;;;;;;;;5092487;28;20035;-69
2023/06/23 11:36:30;;;;;;;10.32;5.18;;;;;;;;;;5074355;28;20112;-69
2023/06/23 11:38:57;;;;;;;10.98;5.35;;;;;;;;;;5095780;28;20111;-68
2023/06/23 11:41:32;;;;;;;10.10;5.13;;;;;;;;;;5112825;28;20059;-70
2023/06/23 11:43:58;;;;;;;8.68;4.70;;;;;;;;;;5112578;28;20388;-71
2023/06/23 11:46:24;;;;;;;11.75;4.82;;;;;;;;;;5094044;28;20040;-69
2023/06/23 11:48:50;;;;;;;8.85;4.82;;;;;;;;;;5109041;28;20432;-68
2023/06/23 11:51:17;;;;;;;12.10;5.85;;;;;;;;;;5092066;28;20075;-71
2023/06/23 11:53:45;;;;;;;11.57;6.60;;;;;;;;;;5074038;28;20089;-70
2023/06/23 11:56:18;;;;;;;13.75;7.78;;;;;;;;;;5092212;28;20538;-69
2023/06/23 11:58:52;;;;;;;12.60;6.75;;;;;;;;;;5092376;28;20039;-71
2023/06/23 12:01:18;;;;;;;11.98;7.43;;;;;;;;;;5092067;28;20048;-70
2023/06/23 12:03:51;;;;;;;12.57;6.38;;;;;;;;;;5091991;28;20043;-72
2023/06/23 12:06:17;;;;;;;11.02;6.32;;;;;;;;;;5092235;28;20093;-72
2023/06/23 12:08:44;;;;;;;9.40;5.88;;;;;;;;;;5092364;28;20028;-68
2023/06/23 12:11:10;;;;;;;10.27;4.85;;;;;;;;;;5091929;28;20024;-70
2023/06/23 12:13:38;;;;;;;9.10;4.32;;;;;;;;;;5092207;28;20055;-73
2023/06/23 12:16:05;;;;;;;9.77;4.03;;;;;;;;;;5091979;28;20024;-71
2023/06/23 12:18:32;;;;;;;9.52;4.60;;;;;;;;;;5092149;28;20161;-68
2023/06/23 12:21:00;;;;;;;8.02;4.70;;;;;;;;;;5092252;28;20021;-67
2023/06/23 12:23:30;;;;;;;9.88;4.53;;;;;;;;;;5093457;28;20031;-67
2023/06/23 12:25:57;;;;;;;10.10;4.15;;;;;;;;;;5095991;28;20133;-69
2023/06/23 12:28:26;;;;;;;9.13;3.30;;;;;;;;;;5095854;28;20024;-67
2023/06/23 12:30:52;;;;;;;4.97;2.93;;;;;;;;;;5095716;28;20028;-68
2023/06/23 12:33:22;;;;;;;4.05;2.97;;;;;;;;;;5095193;28;20038;-67
2023/06/23 12:35:56;;;;;;;6.43;3.33;;;;;;;;;;5095657;28;20106;-68
2023/06/23 12:38:23;;;;;;;7.70;2.80;;;;;;;;;;5095584;28;20027;-67
2023/06/23 12:40:49;;;;;;;7.40;2.67;;;;;;;;;;5115047;28;20073;-69
2023/06/23 12:43:15;;;;;;;5.25;2.95;;;;;;;;;;5116157;28;20032;-68
2023/06/23 12:45:40;;;;;;;6.30;2.85;;;;;;;;;;5115503;28;20548;-68
2023/06/23 12:48:10;;;;;;;8.68;2.53;;;;;;;;;;5115829;28;20019;-67
2023/06/23 12:50:41;;;;;;;7.22;2.95;;;;;;;;;;5097152;28;20068;-68
2023/06/23 12:53:07;;;;;;;4.43;2.40;;;;;;;;;;5095416;28;20081;-68
2023/06/23 12:55:32;;;;;;;6.95;2.63;;;;;;;;;;5095233;28;20028;-68
2023/06/23 12:57:58;;;;;;;6.97;2.80;;;;;;;;;;5094915;28;20082;-71
2023/06/23 13:00:24;;;;;;;4.90;2.50;;;;;;;;;;5095155;28;20105;-71
2023/06/23 13:02:51;;;;;;;3.70;2.25;;;;;;;;;;5095129;28;20016;-68
2023/06/23 13:05:17;;;;;;;5.22;2.80;;;;;;;;;;5095095;28;20031;-67
2023/06/23 13:07:42;;;;;;;4.63;2.63;;;;;;;;;;5094767;28;20024;-68
2023/06/23 13:10:09;;;;;;;4.45;2.50;;;;;;;;;;5094761;28;20059;-71
2023/06/23 13:12:35;;;;;;;6.00;2.42;;;;;;;;;;5095131;28;20039;-67
2023/06/23 13:15:01;;;;;;;6.85;2.55;;;;;;;;;;5094805;28;20028;-68
2023/06/23 13:17:27;;;;;;;7.70;2.50;;;;;;;;;;5094684;28;20488;-70
2023/06/23 13:19:52;;;;;;;8.20;2.97;;;;;;;;;;5094065;28;20028;-70
2023/06/23 13:22:18;;;;;;;5.55;2.88;;;;;;;;;;5094213;28;20023;-68
2023/06/23 13:24:43;;;;;;;6.75;3.05;;;;;;;;;;5094335;28;20020;-68
2023/06/23 13:27:10;;;;;;;6.22;3.30;;;;;;;;;;5094637;28;20016;-68
2023/06/23 13:29:38;;;;;;;8.88;3.28;;;;;;;;;;5094567;28;20024;-68
2023/06/23 13:32:06;;;;;;;6.82;3.50;;;;;;;;;;5094483;28;20068;-70
2023/06/23 13:34:32;;;;;;;7.15;3.60;;;;;;;;;;5094450;28;20024;-70
2023/06/23 13:36:57;;;;;;;9.07;3.67;;;;;;;;;;5094464;28;20020;-67
2023/06/23 13:39:23;;;;;;;9.27;3.33;;;;;;;;;;5101633;28;20023;-70
2023/06/23 13:41:48;;;;;;;6.95;4.13;;;;;;;;;;5114570;28;20027;-67
2023/06/23 13:44:16;;;;;;;4.68;3.58;;;;;;;;;;5114918;28;20047;-70
2023/06/23 13:46:42;;;;;;;8.90;4.00;;;;;;;;;;5114676;28;20111;-70
2023/06/23 13:49:08;;;;;;;6.70;3.95;;;;;;;;;;5108456;28;20514;-70
2023/06/23 13:51:34;;;;;;;5.68;3.75;;;;;;;;;;5094105;28;20032;-70
2023/06/23 13:53:59;;;;;;;8.00;4.00;;;;;;;;;;5093992;28;20020;-69
2023/06/23 13:56:24;;;;;;;6.68;3.88;;;;;;;;;;5094062;28;20024;-69
2023/06/23 13:58:50;;;;;;;8.02;4.20;;;;;;;;;;5093650;28;20035;-70
2023/06/23 14:01:15;;;;;;;6.65;3.88;;;;;;;;;;5094208;28;20040;-70
2023/06/23 14:03:41;;;;;;;8.48;4.18;;;;;;;;;;5093912;28;20028;-70
2023/06/23 14:06:07;;;;;;;6.03;4.18;;;;;;;;;;5094052;28;20066;-70
2023/06/23 14:08:33;;;;;;;6.85;4.38;;;;;;;;;;5093940;28;20413;-70
2023/06/23 14:10:59;;;;;;;6.47;4.57;;;;;;;;;;5093526;28;20028;-68
2023/06/23 14:13:25;;;;;;;6.82;4.45;;;;;;;;;;5093771;28;20023;-69
2023/06/23 14:15:50;;;;;;;7.05;4.45;;;;;;;;;;5093957;28;20020;-70
2023/06/23 14:18:15;;;;;;;12.82;6.75;;;;;;;;;;5093686;28;20089;-70
2023/06/23 14:20:44;;;;;;;7.60;4.82;;;;;;;;;;5093883;28;20374;-70
2023/06/23 14:23:10;;;;;;;7.53;4.35;;;;;;;;;;5093598;28;20020;-69
2023/06/23 14:25:35;;;;;;;7.57;4.40;;;;;;;;;;5093017;28;20039;-69
2023/06/23 14:28:01;;;;;;;9.75;4.65;;;;;;;;;;5093289;28;20102;-71
2023/06/23 14:30:26;;;;;;;10.55;4.75;;;;;;;;;;5093513;28;20123;-71
2023/06/23 14:32:53;;;;;;;7.38;4.30;;;;;;;;;;5093573;28;20052;-70
2023/06/23 14:35:18;;;;;;;6.38;4.10;;;;;;;;;;5093468;28;20850;-70
2023/06/23 14:37:44;;;;;;;7.75;4.50;;;;;;;;;;5093183;28;20020;-71
2023/06/23 14:40:10;;;;;;;7.88;4.95;;;;;;;;;;5106728;28;20031;-71
2023/06/23 14:42:36;;;;;;;7.40;4.43;;;;;;;;;;5113681;28;20157;-71
2023/06/23 14:45:02;;;;;;;8.25;5.13;;;;;;;;;;5113716;28;20056;-70
2023/06/23 14:47:27;;;;;;;8.65;4.40;;;;;;;;;;5112926;28;20055;-71